Time;durP1;ratioP1;P1;durP2;ratioP2;P2;SDS_P1;SDS_P2;PMS_P1;PMS_P2;Temp;Humidity;BMP_temperature;BMP_pressure;BME280_temperature;BME280_humidity;BME280_pressure;Samples;Min_cycle;Max_cycle;Signal;HPM_P1;HPM_P2
2021/05/14 00:00:26;;;;;;;1.73;1.63;;;12.50;49.70;;;;;;6246218;23;20177;-89
2021/05/14 00:02:52;;;;;;;3.55;1.85;;;12.70;50.10;;;;;;6245928;23;20624;-89
2021/05/14 00:05:19;;;;;;;2.30;1.80;;;12.50;50.40;;;;;;6246186;23;20278;-88
2021/05/14 00:07:45;;;;;;;2.17;2.08;;;12.40;50.50;;;;;;6246399;23;20180;-90
2021/05/14 00:10:12;;;;;;;1.93;1.83;;;12.30;50.20;;;;;;6246115;23;20149;-89
2021/05/14 00:12:38;;;;;;;1.67;1.58;;;12.50;50.00;;;;;;6246000;23;20153;-89
2021/05/14 00:15:05;;;;;;;2.50;1.47;;;12.40;49.40;;;;;;6246375;23;20587;-89
2021/05/14 00:17:31;;;;;;;1.73;1.50;;;12.50;49.00;;;;;;6247361;23;20165;-89
2021/05/14 00:19:57;;;;;;;1.23;1.13;;;12.50;48.90;;;;;;6248514;23;20158;-89
2021/05/14 00:22:22;;;;;;;1.97;1.40;;;12.60;48.80;;;;;;6248087;23;20521;-89
2021/05/14 00:24:49;;;;;;;1.80;1.70;;;12.60;48.70;;;;;;6247961;23;20164;-89
2021/05/14 00:27:15;;;;;;;2.85;1.90;;;12.40;48.70;;;;;;6247494;23;20249;-89
2021/05/14 00:29:41;;;;;;;3.10;2.10;;;12.50;49.00;;;;;;6247372;23;20223;-89
2021/05/14 00:32:07;;;;;;;2.43;2.10;;;12.40;48.90;;;;;;6247431;23;20233;-89
2021/05/14 00:34:33;;;;;;;1.80;1.70;;;12.40;48.90;;;;;;6247958;23;20156;-89
2021/05/14 00:36:58;;;;;;;2.77;2.40;;;12.50;49.00;;;;;;6247738;23;20537;-89
2021/05/14 00:39:24;;;;;;;4.57;2.13;;;12.50;49.00;;;;;;6247787;23;20157;-89
2021/05/14 00:41:50;;;;;;;2.63;1.90;;;12.10;50.20;;;;;;6248340;23;20150;-89
2021/05/14 00:44:29;;;;;;;1.70;1.60;;;12.00;49.30;;;;;;6246898;23;20481;-89
2021/05/14 00:46:57;;;;;;;2.20;2.00;;;12.10;49.10;;;;;;6247111;23;20199;-89
2021/05/14 00:49:24;;;;;;;2.67;1.95;;;12.00;48.90;;;;;;6247480;23;20178;-89
2021/05/14 00:51:50;;;;;;;2.60;2.40;;;12.20;49.20;;;;;;6248032;23;20156;-88
2021/05/14 00:54:16;;;;;;;2.17;1.95;;;12.00;49.60;;;;;;6249123;23;20150;-90
2021/05/14 00:56:42;;;;;;;1.60;1.50;;;11.90;49.50;;;;;;6248273;23;20276;-89
2021/05/14 00:59:08;;;;;;;2.30;1.50;;;11.40;48.60;;;;;;6248583;23;20220;-89
2021/05/14 01:01:57;;;;;;;1.90;1.50;;;12.00;48.80;;;;;;6249135;23;20150;-89
2021/05/14 01:04:24;;;;;;;1.70;1.20;;;11.80;48.80;;;;;;6249864;23;20459;-89
2021/05/14 01:06:50;;;;;;;2.25;1.35;;;11.80;49.00;;;;;;6250039;23;20654;-89
2021/05/14 01:09:17;;;;;;;5.28;2.05;;;11.80;48.90;;;;;;6247306;23;20338;-88
2021/05/14 01:11:43;;;;;;;1.52;1.40;;;11.90;49.00;;;;;;6246807;23;20149;-88
2021/05/14 01:14:09;;;;;;;9.90;1.80;;;11.70;48.70;;;;;;6248056;23;20170;-90
2021/05/14 01:16:36;;;;;;;1.60;1.50;;;11.20;48.80;;;;;;6247511;23;20365;-91
2021/05/14 01:19:03;;;;;;;1.60;1.45;;;11.40;49.30;;;;;;6247421;23;20153;-89
2021/05/14 01:21:29;;;;;;;1.98;1.75;;;11.40;50.10;;;;;;6246762;23;20478;-89
2021/05/14 01:23:56;;;;;;;2.88;1.92;;;11.20;49.90;;;;;;6247004;23;20146;-88
2021/05/14 01:26:27;;;;;;;2.72;2.05;;;11.10;50.40;;;;;;6247355;23;20182;-90
2021/05/14 01:28:53;;;;;;;1.75;1.65;;;10.90;51.20;;;;;;6247009;23;20177;-89
2021/05/14 01:31:20;;;;;;;2.00;1.90;;;10.80;51.40;;;;;;6247287;23;20467;-89
2021/05/14 01:33:46;;;;;;;2.50;1.83;;;10.60;51.80;;;;;;6247553;23;20193;-90
2021/05/14 01:36:12;;;;;;;2.38;2.17;;;10.90;52.70;;;;;;6248075;23;20570;-90
2021/05/14 01:38:38;;;;;;;2.77;2.13;;;10.30;51.90;;;;;;6249866;23;20212;-90
2021/05/14 01:41:04;;;;;;;2.00;1.80;;;10.80;51.70;;;;;;6248227;23;20383;-90
2021/05/14 01:43:31;;;;;;;2.47;2.22;;;11.10;51.40;;;;;;6248791;23;20150;-89
2021/05/14 01:45:58;;;;;;;4.97;2.63;;;10.90;51.00;;;;;;6248774;23;20149;-90
2021/05/14 01:48:24;;;;;;;3.80;2.08;;;10.80;50.70;;;;;;6247745;23;20256;-90
2021/05/14 01:50:50;;;;;;;2.37;2.17;;;10.70;50.90;;;;;;6249458;23;20164;-90
2021/05/14 01:53:16;;;;;;;2.47;2.30;;;10.80;51.90;;;;;;6248839;23;20820;-90
2021/05/14 01:55:42;;;;;;;2.10;1.97;;;10.90;52.40;;;;;;6248893;23;20186;-90
2021/05/14 01:58:09;;;;;;;3.17;1.73;;;10.80;52.00;;;;;;6248653;23;20161;-92
2021/05/14 02:00:35;;;;;;;1.83;1.73;;;10.80;51.50;;;;;;6248443;23;20438;-90
2021/05/14 02:03:01;;;;;;;1.92;1.83;;;10.80;51.00;;;;;;6247916;23;20160;-90
2021/05/14 02:05:27;;;;;;;1.88;1.75;;;10.70;50.40;;;;;;6249239;23;20150;-89
2021/05/14 02:07:55;;;;;;;2.30;1.97;;;10.90;50.30;;;;;;6248713;23;20231;-91
2021/05/14 02:10:22;;;;;;;1.65;1.55;;;10.60;49.90;;;;;;6248685;23;20160;-90
2021/05/14 02:12:51;;;;;;;2.20;1.65;;;11.30;50.30;;;;;;6248283;23;20199;-90
2021/05/14 02:15:17;;;;;;;2.38;2.17;;;10.80;50.00;;;;;;6246513;23;20236;-90
2021/05/14 02:17:46;;;;;;;1.70;1.60;;;10.10;51.10;;;;;;6246279;23;20223;-90
2021/05/14 02:20:13;;;;;;;1.83;1.70;;;10.30;53.00;;;;;;6246489;23;20533;-91
2021/05/14 02:22:39;;;;;;;2.15;1.83;;;10.20;53.30;;;;;;6246140;23;20566;-90
2021/05/14 02:25:06;;;;;;;2.37;1.90;;;10.20;53.10;;;;;;6246545;23;20153;-89
2021/05/14 02:27:33;;;;;;;1.75;1.63;;;9.90;53.30;;;;;;6246883;23;20476;-90
2021/05/14 02:30:00;;;;;;;2.80;2.00;;;10.40;51.90;;;;;;6247719;23;20264;-91
2021/05/14 02:32:26;;;;;;;1.60;1.50;;;10.60;51.30;;;;;;6247844;23;20157;-91
2021/05/14 02:34:51;;;;;;;1.87;1.77;;;10.60;50.90;;;;;;6247978;23;20154;-90
2021/05/14 02:37:17;;;;;;;1.70;1.60;;;10.70;50.60;;;;;;6246678;23;20153;-90
2021/05/14 02:39:43;;;;;;;4.27;1.70;;;10.70;50.30;;;;;;6248034;22;20145;-89
2021/05/14 02:42:08;;;;;;;1.10;1.00;;;10.60;50.00;;;;;;6247154;23;20156;-90
2021/05/14 02:44:35;;;;;;;1.77;1.60;;;10.50;50.00;;;;;;6246593;23;20182;-91
2021/05/14 02:47:01;;;;;;;2.03;1.70;;;10.70;50.00;;;;;;6246615;23;20385;-89
2021/05/14 02:49:27;;;;;;;1.70;1.60;;;10.60;49.70;;;;;;6246270;23;20177;-89
2021/05/14 02:51:56;;;;;;;1.67;1.57;;;10.60;49.50;;;;;;6247410;23;20153;-88
2021/05/14 02:54:21;;;;;;;1.80;1.70;;;10.90;50.10;;;;;;6246450;23;20199;-90
2021/05/14 02:56:47;;;;;;;2.00;1.60;;;10.70;49.90;;;;;;6245494;23;20193;-89
2021/05/14 02:59:13;;;;;;;2.77;2.40;;;10.70;49.70;;;;;;6245820;23;20237;-90
2021/05/14 03:01:39;;;;;;;2.13;1.60;;;10.50;49.60;;;;;;6245935;23;20146;-90
2021/05/14 03:04:05;;;;;;;1.93;1.80;;;10.50;49.80;;;;;;6245924;23;20229;-90
2021/05/14 03:06:31;;;;;;;1.63;1.50;;;10.60;49.80;;;;;;6246342;23;20169;-90
2021/05/14 03:08:58;;;;;;;1.65;1.55;;;10.40;49.50;;;;;;6245972;23;20185;-90
2021/05/14 03:11:24;;;;;;;2.28;1.70;;;10.40;49.40;;;;;;6246188;23;20229;-89
2021/05/14 03:13:51;;;;;;;1.60;1.50;;;10.40;49.60;;;;;;6246336;23;20204;-90
2021/05/14 03:16:16;;;;;;;2.17;1.58;;;10.30;49.50;;;;;;6246804;23;20629;-89
2021/05/14 03:18:42;;;;;;;1.83;1.73;;;10.50;49.50;;;;;;6246112;23;20145;-90
2021/05/14 03:21:08;;;;;;;1.80;1.70;;;10.30;49.30;;;;;;6246243;23;20152;-91
2021/05/14 03:23:36;;;;;;;1.93;1.77;;;10.40;49.70;;;;;;6246184;23;20153;-90
2021/05/14 03:26:01;;;;;;;2.40;1.77;;;10.40;49.80;;;;;;6246200;23;20375;-90
2021/05/14 03:28:27;;;;;;;3.43;1.37;;;9.50;50.60;;;;;;6246848;22;20628;-90
2021/05/14 03:30:53;;;;;;;3.13;2.03;;;10.20;50.10;;;;;;6245824;23;20149;-91
2021/05/14 03:33:22;;;;;;;16.63;3.43;;;10.00;50.40;;;;;;6246481;23;20138;-90
2021/05/14 03:35:52;;;;;;;2.22;2.00;;;9.60;51.30;;;;;;6246244;23;20142;-90
2021/05/14 03:38:28;;;;;;;2.28;2.08;;;9.90;51.60;;;;;;6245525;23;20146;-90
2021/05/14 03:40:54;;;;;;;2.92;1.92;;;9.80;51.60;;;;;;6246112;23;20149;-90
2021/05/14 03:43:20;;;;;;;1.95;1.73;;;9.60;52.00;;;;;;6245530;23;20157;-90
2021/05/14 03:45:46;;;;;;;1.60;1.50;;;9.60;51.80;;;;;;6246025;23;20150;-90
2021/05/14 03:48:19;;;;;;;1.60;1.50;;;9.60;51.50;;;;;;6245464;23;20421;-91
2021/05/14 03:50:50;;;;;;;2.85;1.90;;;9.80;51.70;;;;;;6245790;23;20387;-90
2021/05/14 03:53:17;;;;;;;2.28;2.05;;;9.80;51.80;;;;;;6246106;23;20152;-90
2021/05/14 03:55:43;;;;;;;2.65;2.45;;;9.70;53.20;;;;;;6246604;23;20229;-90
2021/05/14 03:58:09;;;;;;;2.00;1.80;;;9.30;52.90;;;;;;6246025;23;20149;-90
2021/05/14 04:00:35;;;;;;;2.00;1.90;;;9.20;54.70;;;;;;6245756;23;20383;-90
2021/05/14 04:03:01;;;;;;;2.17;1.98;;;9.40;53.60;;;;;;6245459;23;20156;-91
2021/05/14 04:05:27;;;;;;;7.77;1.73;;;9.50;52.90;;;;;;6246873;22;20134;-90
2021/05/14 04:07:54;;;;;;;2.28;1.83;;;9.20;52.40;;;;;;6246543;23;20207;-90
2021/05/14 04:16:08;;;;;;;2.95;2.30;;;9.10;54.90;;;;;;6247766;23;20209;-91
2021/05/14 04:18:37;;;;;;;3.25;2.30;;;8.70;55.90;;;;;;6245638;23;20153;-90
2021/05/14 04:21:04;;;;;;;1.98;1.50;;;8.40;56.10;;;;;;6245595;23;20154;-90
2021/05/14 04:23:29;;;;;;;4.00;3.15;;;8.80;55.70;;;;;;6245306;23;20157;-90
2021/05/14 04:25:56;;;;;;;3.00;1.77;;;9.40;55.10;;;;;;6245038;23;20422;-90
2021/05/14 04:28:22;;;;;;;2.00;1.85;;;9.10;54.40;;;;;;6245119;23;20181;-90
2021/05/14 04:30:48;;;;;;;1.85;1.75;;;9.30;53.80;;;;;;6245634;23;20154;-90
2021/05/14 04:33:13;;;;;;;2.40;2.10;;;9.60;53.30;;;;;;6245509;23;20216;-91
2021/05/14 04:35:40;;;;;;;4.07;3.53;;;9.60;52.90;;;;;;6245160;23;20373;-91
2021/05/14 04:38:06;;;;;;;6.35;3.65;;;9.50;52.10;;;;;;6245845;23;20154;-92
2021/05/14 04:40:35;;;;;;;3.97;3.20;;;9.60;51.70;;;;;;6249950;23;20153;-93
2021/05/14 04:43:01;;;;;;;3.42;3.13;;;9.30;52.10;;;;;;6247198;23;20161;-90
2021/05/14 04:45:27;;;;;;;2.50;2.30;;;9.20;52.30;;;;;;6246876;23;20229;-90
2021/05/14 04:47:53;;;;;;;4.70;2.77;;;9.30;53.00;;;;;;6245390;23;20146;-91
2021/05/14 04:50:19;;;;;;;2.67;2.47;;;9.30;53.50;;;;;;6245806;23;20391;-90
2021/05/14 04:52:46;;;;;;;2.33;2.03;;;9.30;53.80;;;;;;6245975;23;20181;-90
2021/05/14 04:55:15;;;;;;;1.90;1.80;;;9.20;53.90;;;;;;6247375;23;20399;-94
2021/05/14 04:57:41;;;;;;;1.98;1.88;;;9.50;53.60;;;;;;6221420;23;20157;-89
2021/05/14 05:00:07;;;;;;;2.30;2.10;;;9.40;53.30;;;;;;6221550;23;20200;-89
2021/05/14 05:02:33;;;;;;;2.17;2.05;;;9.10;53.60;;;;;;6222085;23;20447;-91
2021/05/14 05:05:00;;;;;;;2.20;2.10;;;9.10;53.40;;;;;;6223463;23;20215;-90
2021/05/14 05:07:26;;;;;;;1.70;1.60;;;9.70;53.20;;;;;;6224340;23;20826;-91
2021/05/14 05:09:58;;;;;;;3.00;2.50;;;10.00;52.10;;;;;;6222289;23;20197;-90
2021/05/14 05:12:24;;;;;;;1.70;1.60;;;9.80;52.00;;;;;;6222922;23;20470;-89
2021/05/14 05:14:50;;;;;;;2.33;2.00;;;10.00;52.00;;;;;;6221950;23;20150;-90
2021/05/14 05:17:16;;;;;;;3.70;1.95;;;9.80;52.90;;;;;;6222726;23;20589;-90
2021/05/14 05:19:51;;;;;;;3.30;2.23;;;10.00;52.00;;;;;;6224081;23;20153;-92
2021/05/14 05:22:17;;;;;;;3.03;2.67;;;10.30;52.20;;;;;;6222216;23;20601;-84
2021/05/14 05:24:45;;;;;;;2.90;2.60;;;10.00;52.40;;;;;;6220762;23;20157;-90
2021/05/14 05:27:12;;;;;;;2.05;1.85;;;10.00;53.30;;;;;;6222379;23;20150;-89
2021/05/14 05:29:39;;;;;;;1.65;1.55;;;10.40;53.00;;;;;;6222160;23;20563;-90
2021/05/14 05:32:05;;;;;;;4.40;1.67;;;11.10;53.30;;;;;;6222492;23;20153;-90
2021/05/14 05:34:33;;;;;;;2.07;1.87;;;11.70;48.30;;;;;;6222235;23;20431;-90
2021/05/14 05:36:58;;;;;;;1.67;1.50;;;12.50;45.20;;;;;;6225446;23;20373;-90
2021/05/14 05:39:24;;;;;;;3.53;1.93;;;13.40;43.00;;;;;;6228397;23;20466;-89
2021/05/14 05:41:50;;;;;;;2.43;2.17;;;14.10;40.30;;;;;;6225067;23;20165;-90
2021/05/14 05:44:16;;;;;;;1.80;1.70;;;14.60;37.40;;;;;;6224273;23;20205;-89
2021/05/14 05:46:42;;;;;;;2.10;1.90;;;15.00;37.50;;;;;;6224643;23;20176;-89
2021/05/14 05:49:07;;;;;;;1.80;1.67;;;14.80;37.50;;;;;;6223704;23;20416;-90
2021/05/14 05:51:33;;;;;;;4.70;2.00;;;15.40;36.60;;;;;;6222385;23;20554;-89
2021/05/14 05:53:59;;;;;;;2.03;1.37;;;15.30;35.50;;;;;;6249651;23;20130;-89
2021/05/14 05:56:25;;;;;;;2.20;2.00;;;15.60;35.80;;;;;;6249257;23;20216;-90
2021/05/14 05:58:53;;;;;;;2.03;1.93;;;16.50;35.20;;;;;;6221834;23;20374;-89
2021/05/14 06:01:19;;;;;;;1.60;1.50;;;16.80;34.70;;;;;;6222636;23;20387;-88
2021/05/14 06:03:47;;;;;;;3.40;1.73;;;17.50;32.90;;;;;;6222560;23;20404;-88
2021/05/14 06:06:13;;;;;;;5.60;2.07;;;18.40;31.90;;;;;;6224036;23;20355;-91
2021/05/14 06:08:59;;;;;;;1.20;1.10;;;19.20;29.20;;;;;;6227384;23;20889;-91
2021/05/14 06:11:25;;;;;;;4.60;1.87;;;19.80;28.00;;;;;;6227856;23;20467;-91
2021/05/14 06:14:10;;;;;;;3.30;2.10;;;20.40;27.30;;;;;;6227574;23;20372;-92
2021/05/14 06:16:36;;;;;;;1.73;1.57;;;20.80;26.50;;;;;;6229006;23;20376;-90
2021/05/14 06:19:08;;;;;;;1.80;1.70;;;21.20;25.70;;;;;;6225115;23;20434;-90
2021/05/14 06:21:34;;;;;;;1.97;1.77;;;21.40;25.40;;;;;;6224419;23;20232;-89
2021/05/14 06:24:00;;;;;;;4.23;1.60;;;21.80;25.70;;;;;;6226652;23;20403;-89
2021/05/14 06:26:25;;;;;;;4.20;1.30;;;21.90;24.60;;;;;;6227752;23;20384;-90
2021/05/14 06:28:52;;;;;;;1.60;1.50;;;22.10;24.90;;;;;;6222740;23;20182;-89
2021/05/14 06:31:18;;;;;;;1.50;1.33;;;22.50;24.30;;;;;;6230665;23;20146;-91
2021/05/14 06:33:58;;;;;;;1.67;1.40;;;22.80;23.90;;;;;;6228694;23;20445;-90
2021/05/14 06:36:24;;;;;;;2.03;1.27;;;23.20;23.70;;;;;;6228050;23;20233;-91
2021/05/14 06:42:13;;;;;;;2.93;1.83;;;23.90;22.30;;;;;;6253871;23;20824;-91
2021/05/14 06:44:41;;;;;;;1.50;1.40;;;24.30;21.40;;;;;;6229469;23;20378;-91
2021/05/14 06:47:07;;;;;;;2.30;1.50;;;24.60;21.30;;;;;;6229274;23;20387;-91
2021/05/14 06:49:51;;;;;;;1.10;1.00;;;24.90;21.00;;;;;;6231273;23;20475;-90
2021/05/14 06:52:17;;;;;;;1.80;1.40;;;25.20;20.80;;;;;;6231267;23;20380;-92
2021/05/14 06:54:43;;;;;;;1.70;1.47;;;25.50;20.40;;;;;;6228846;23;20375;-91
2021/05/14 06:57:09;;;;;;;1.60;1.50;;;25.50;20.60;;;;;;6203537;23;20428;-91
2021/05/14 06:59:53;;;;;;;1.87;1.30;;;25.70;19.50;;;;;;6204251;23;20137;-94
2021/05/14 07:02:39;;;;;;;1.63;1.20;;;25.40;19.70;;;;;;6182669;23;20395;-93
2021/05/14 07:05:05;;;;;;;1.73;1.53;;;25.40;20.40;;;;;;6193005;23;20677;-87
2021/05/14 07:07:34;;;;;;;1.10;1.00;;;25.60;20.20;;;;;;6189649;23;20430;-84
2021/05/14 07:09:59;;;;;;;2.77;1.13;;;25.80;20.10;;;;;;6189197;23;20429;-84
2021/05/14 07:12:25;;;;;;;1.00;1.00;;;26.20;19.50;;;;;;6189368;23;20451;-84
2021/05/14 07:14:51;;;;;;;2.37;1.40;;;26.50;19.30;;;;;;6189128;23;20142;-83
2021/05/14 07:17:17;;;;;;;1.90;1.60;;;26.60;19.10;;;;;;6189227;23;20473;-83
2021/05/14 07:19:43;;;;;;;1.30;1.20;;;26.30;18.70;;;;;;6189251;23;20197;-83
2021/05/14 07:22:09;;;;;;;1.33;1.20;;;25.20;19.80;;;;;;6189390;23;20387;-86
2021/05/14 07:24:34;;;;;;;1.83;0.90;;;24.20;21.70;;;;;;6189442;23;20147;-85
2021/05/14 07:27:01;;;;;;;1.80;1.10;;;23.30;22.60;;;;;;6217040;23;20362;-85
2021/05/14 07:29:27;;;;;;;0.93;0.83;;;22.70;24.20;;;;;;6189610;23;20178;-85
2021/05/14 07:31:52;;;;;;;1.87;1.10;;;22.30;24.90;;;;;;6189582;23;20382;-87
2021/05/14 07:34:18;;;;;;;1.47;1.00;;;22.20;25.40;;;;;;6194309;23;20143;-91
2021/05/14 07:36:52;;;;;;;1.27;1.17;;;21.90;24.90;;;;;;6193525;23;20193;-90
2021/05/14 07:39:18;;;;;;;1.30;0.80;;;22.10;24.80;;;;;;6196688;23;20146;-91
2021/05/14 07:41:45;;;;;;;1.90;0.90;;;22.10;26.70;;;;;;6194238;23;20382;-88
2021/05/14 07:44:10;;;;;;;1.00;0.80;;;21.90;25.80;;;;;;6194284;23;20831;-90
2021/05/14 07:47:28;;;;;;;1.03;0.90;;;22.10;25.30;;;;;;6194994;23;20385;-88
2021/05/14 07:49:54;;;;;;;1.40;1.00;;;21.90;24.80;;;;;;6193229;23;20495;-90
2021/05/14 07:52:27;;;;;;;1.30;0.87;;;21.90;25.80;;;;;;6193934;23;20386;-90
2021/05/14 07:54:53;;;;;;;1.10;0.70;;;22.30;25.80;;;;;;6193373;23;20348;-87
2021/05/14 07:57:19;;;;;;;1.00;0.90;;;22.20;25.20;;;;;;6237669;23;20405;-87
2021/05/14 07:59:44;;;;;;;1.60;0.90;;;21.90;25.80;;;;;;6247328;23;20153;-88
2021/05/14 08:02:10;;;;;;;0.80;0.73;;;21.60;25.60;;;;;;6248491;23;20236;-89
2021/05/14 08:04:37;;;;;;;1.40;0.80;;;21.40;26.20;;;;;;6253990;23;20388;-88
2021/05/14 08:07:03;;;;;;;0.80;0.80;;;21.00;26.90;;;;;;6247416;23;20164;-87
2021/05/14 08:09:29;;;;;;;1.10;0.70;;;20.00;27.70;;;;;;6247503;23;20424;-86
2021/05/14 08:11:54;;;;;;;1.50;0.87;;;20.00;28.60;;;;;;6247348;23;20509;-90
2021/05/14 08:14:20;;;;;;;1.00;0.70;;;19.70;28.40;;;;;;6246886;23;20145;-90
2021/05/14 08:16:47;;;;;;;2.25;1.20;;;19.40;29.60;;;;;;6246350;23;20886;-88
2021/05/14 08:19:13;;;;;;;1.20;1.10;;;19.20;29.40;;;;;;6249713;23;20241;-89
2021/05/14 08:21:45;;;;;;;1.40;0.77;;;18.80;29.20;;;;;;6246415;23;20381;-89
2021/05/14 08:24:12;;;;;;;1.45;0.90;;;18.80;30.20;;;;;;6245345;23;20395;-89
2021/05/14 08:26:39;;;;;;;1.10;0.93;;;18.80;30.30;;;;;;6250158;23;20150;-93
2021/05/14 08:29:06;;;;;;;2.30;0.90;;;18.70;30.20;;;;;;6246828;23;20882;-90
2021/05/14 08:31:34;;;;;;;1.03;0.90;;;18.80;30.20;;;;;;6246175;23;20157;-90
2021/05/14 08:34:03;;;;;;;1.73;0.87;;;18.50;32.20;;;;;;6246513;23;20439;-90
2021/05/14 08:36:29;;;;;;;1.10;0.83;;;18.50;30.00;;;;;;6246528;23;20404;-90
2021/05/14 08:38:56;;;;;;;1.60;0.87;;;18.60;31.20;;;;;;6247441;23;20376;-89
2021/05/14 08:41:21;;;;;;;1.73;0.77;;;18.50;30.00;;;;;;6248521;23;20455;-88
2021/05/14 08:43:48;;;;;;;1.20;0.80;;;18.40;30.00;;;;;;6246986;23;20375;-88
2021/05/14 08:46:16;;;;;;;1.80;0.80;;;18.90;30.40;;;;;;6248174;23;20149;-89
2021/05/14 08:48:42;;;;;;;2.50;1.07;;;18.60;30.10;;;;;;6248926;23;20416;-89
2021/05/14 08:51:10;;;;;;;1.03;0.93;;;18.60;30.10;;;;;;6249890;23;20369;-90
2021/05/14 08:53:38;;;;;;;1.07;0.80;;;18.40;30.00;;;;;;6247927;23;20384;-89
2021/05/14 08:56:05;;;;;;;2.30;1.13;;;18.70;31.40;;;;;;6247457;23;20447;-89
2021/05/14 08:58:31;;;;;;;2.87;0.90;;;18.90;31.40;;;;;;6248298;23;20397;-90
2021/05/14 09:00:57;;;;;;;1.00;0.87;;;18.60;29.00;;;;;;6248465;23;20387;-89
2021/05/14 09:03:23;;;;;;;0.87;0.70;;;18.70;30.00;;;;;;6247970;23;20411;-90
2021/05/14 09:05:49;;;;;;;0.80;0.80;;;18.50;30.00;;;;;;6249448;23;20375;-89
2021/05/14 09:08:29;;;;;;;2.50;0.97;;;18.80;30.20;;;;;;6247386;23;20154;-89
2021/05/14 09:10:55;;;;;;;1.60;0.70;;;19.00;29.40;;;;;;6248138;23;20391;-88
2021/05/14 09:13:20;;;;;;;0.97;0.70;;;19.10;28.60;;;;;;6248270;23;20355;-90
2021/05/14 09:15:47;;;;;;;1.10;0.80;;;18.80;29.70;;;;;;6247155;23;20585;-88
2021/05/14 09:18:25;;;;;;;0.70;0.60;;;19.20;28.10;;;;;;6248631;23;20224;-88
2021/05/14 09:20:59;;;;;;;2.43;0.80;;;19.30;27.70;;;;;;6248736;23;20380;-88
2021/05/14 09:23:29;;;;;;;1.00;0.80;;;19.80;27.80;;;;;;6251447;23;20728;-88
2021/05/14 09:26:03;;;;;;;1.27;0.80;;;19.80;27.90;;;;;;6247599;23;20359;-88
2021/05/14 09:28:48;;;;;;;0.70;0.70;;;19.90;28.10;;;;;;6247819;23;20718;-88
2021/05/14 09:31:20;;;;;;;1.87;0.90;;;20.10;27.60;;;;;;6250213;23;20356;-88
2021/05/14 09:33:48;;;;;;;1.53;0.90;;;20.20;28.20;;;;;;6253263;23;20392;-87
2021/05/14 09:36:18;;;;;;;1.37;0.80;;;20.90;26.90;;;;;;6248845;23;20366;-87
2021/05/14 09:38:49;;;;;;;0.90;0.70;;;20.50;26.20;;;;;;6247769;23;20388;-88
2021/05/14 09:41:23;;;;;;;2.80;0.70;;;21.20;25.60;;;;;;6248512;23;20489;-87
2021/05/14 09:43:55;;;;;;;2.87;0.63;;;21.20;24.90;;;;;;6247864;23;20359;-88
2021/05/14 09:46:29;;;;;;;3.07;0.93;;;21.10;25.30;;;;;;6247634;23;20379;-86
2021/05/14 09:49:03;;;;;;;1.43;0.90;;;21.50;25.00;;;;;;6247638;23;20403;-86
2021/05/14 09:51:29;;;;;;;1.00;0.70;;;21.50;24.20;;;;;;6247334;23;20383;-86
2021/05/14 09:53:56;;;;;;;1.23;0.80;;;21.80;24.20;;;;;;6246168;23;20396;-87
2021/05/14 09:56:29;;;;;;;1.10;0.73;;;21.30;23.90;;;;;;6255126;23;20439;-93
2021/05/14 09:59:11;;;;;;;1.53;0.80;;;21.10;22.90;;;;;;6263036;23;20365;-92
2021/05/14 10:01:38;;;;;;;1.43;0.80;;;20.90;23.90;;;;;;6255234;23;20794;-87
2021/05/14 10:04:05;;;;;;;1.40;0.60;;;21.40;24.60;;;;;;6249021;23;20372;-87
2021/05/14 10:06:35;;;;;;;1.20;0.70;;;21.50;24.80;;;;;;6247564;23;20381;-87
2021/05/14 10:09:07;;;;;;;1.40;1.10;;;21.40;24.30;;;;;;6247588;23;20401;-87
2021/05/14 10:11:34;;;;;;;1.23;0.80;;;21.70;25.30;;;;;;6246963;23;20803;-87
2021/05/14 10:14:03;;;;;;;1.57;0.77;;;21.10;24.20;;;;;;6249287;23;20372;-88
2021/05/14 10:16:30;;;;;;;1.23;0.70;;;21.30;25.40;;;;;;6247446;23;20348;-87
2021/05/14 10:19:03;;;;;;;0.60;0.50;;;20.70;23.40;;;;;;6248799;23;20886;-88
2021/05/14 10:21:29;;;;;;;2.30;1.00;;;20.90;23.30;;;;;;6250183;23;20373;-90
2021/05/14 10:23:55;;;;;;;1.20;0.83;;;20.90;24.80;;;;;;6252280;23;20356;-88
2021/05/14 10:26:20;;;;;;;3.40;0.80;;;21.30;25.40;;;;;;6247656;23;20833;-87
2021/05/14 10:28:49;;;;;;;1.63;0.70;;;20.90;25.70;;;;;;6246856;23;20391;-87
2021/05/14 10:31:18;;;;;;;1.50;1.17;;;20.70;25.90;;;;;;6247612;23;20142;-86
2021/05/14 10:33:58;;;;;;;2.80;0.93;;;21.00;25.60;;;;;;6247776;23;20354;-87
2021/05/14 10:36:32;;;;;;;1.10;0.90;;;20.70;25.60;;;;;;6249059;23;20346;-87
2021/05/14 10:39:17;;;;;;;2.47;1.10;;;20.90;25.70;;;;;;6249765;23;20362;-87
2021/05/14 10:42:08;;;;;;;1.07;1.00;;;20.70;24.30;;;;;;6248748;23;20889;-87
2021/05/14 10:44:51;;;;;;;1.53;0.90;;;20.80;23.70;;;;;;6249850;23;20396;-88
2021/05/14 10:47:38;;;;;;;1.20;0.70;;;20.20;24.70;;;;;;6248216;23;20359;-89
2021/05/14 10:50:31;;;;;;;1.70;0.63;;;20.30;25.00;;;;;;6246700;23;20416;-89
2021/05/14 10:53:16;;;;;;;1.53;0.70;;;20.40;25.10;;;;;;6249616;23;20858;-89
2021/05/14 10:55:42;;;;;;;0.80;0.67;;;20.30;25.60;;;;;;6248592;23;20332;-88
2021/05/14 10:58:08;;;;;;;1.40;0.90;;;20.40;23.50;;;;;;6221039;23;20471;-88
2021/05/14 11:00:39;;;;;;;0.70;0.50;;;20.30;22.70;;;;;;6221697;23;20459;-86
2021/05/14 11:03:11;;;;;;;1.10;0.63;;;20.20;22.20;;;;;;6222135;23;20674;-86
2021/05/14 11:05:48;;;;;;;1.30;0.70;;;20.10;23.40;;;;;;6220885;23;20385;-87
2021/05/14 11:09:06;;;;;;;1.13;0.80;;;20.30;23.80;;;;;;6220301;23;20713;-86
2021/05/14 11:11:32;;;;;;;0.70;0.70;;;20.50;23.50;;;;;;6096264;23;20906;-87
2021/05/14 11:14:19;;;;;;;1.13;0.70;;;21.00;23.50;;;;;;6231939;23;20363;-88
2021/05/14 11:16:46;;;;;;;1.00;0.80;;;21.50;21.50;;;;;;6221022;23;20359;-87
2021/05/14 11:19:28;;;;;;;0.80;0.60;;;21.20;22.20;;;;;;6220661;23;20410;-88
2021/05/14 11:22:01;;;;;;;3.63;0.93;;;21.20;21.40;;;;;;6220720;23;20384;-87
2021/05/14 11:24:42;;;;;;;0.90;0.73;;;20.80;23.10;;;;;;6220554;23;20361;-87
2021/05/14 11:27:23;;;;;;;1.37;0.80;;;20.40;24.40;;;;;;6220639;23;20358;-87
2021/05/14 11:29:57;;;;;;;0.70;0.70;;;20.40;25.40;;;;;;6221212;23;20417;-87
2021/05/14 11:32:38;;;;;;;1.70;0.70;;;20.40;24.10;;;;;;6220705;23;20383;-87
2021/05/14 11:35:18;;;;;;;1.27;0.73;;;20.50;23.00;;;;;;6221581;23;20381;-89
2021/05/14 11:38:05;;;;;;;1.50;0.60;;;20.70;22.90;;;;;;6220891;23;20376;-88
2021/05/14 11:40:36;;;;;;;1.13;0.53;;;20.70;22.10;;;;;;6221369;23;20380;-88
2021/05/14 11:43:06;;;;;;;1.20;0.90;;;20.90;22.40;;;;;;6220988;23;20426;-87
2021/05/14 11:45:38;;;;;;;3.03;0.93;;;20.90;23.10;;;;;;6221113;23;20384;-88
2021/05/14 11:48:37;;;;;;;0.70;0.60;;;20.50;22.50;;;;;;6224121;23;20833;-94
2021/05/14 11:51:04;;;;;;;1.40;1.00;;;20.40;23.40;;;;;;6244145;23;20459;-93
2021/05/14 11:53:50;;;;;;;1.43;0.80;;;20.40;24.80;;;;;;6263552;23;20408;-93
2021/05/14 11:56:18;;;;;;;1.40;0.60;;;20.30;24.60;;;;;;6239662;23;20390;-94
2021/05/14 12:02:35;;;;;;;1.20;1.10;;;20.40;24.60;;;;;;6269939;22;20313;-93
2021/05/14 12:05:01;;;;;;;1.37;0.70;;;20.40;24.00;;;;;;6227673;23;20354;-89
2021/05/14 12:07:27;;;;;;;0.90;0.60;;;21.00;25.40;;;;;;6250743;23;20375;-92
2021/05/14 12:10:32;;;;;;;0.60;0.43;;;21.00;24.40;;;;;;6254614;23;20208;-92
2021/05/14 12:12:59;;;;;;;0.67;0.60;;;20.70;19.40;;;;;;6265092;23;20517;-92
2021/05/14 12:15:26;;;;;;;1.00;0.70;;;20.80;21.40;;;;;;6266064;23;20365;-92
2021/05/14 12:21:38;;;;;;;1.00;0.73;;;20.80;21.20;;;;;;6269720;23;20333;-93
2021/05/14 12:24:14;;;;;;;0.60;0.60;;;20.60;21.10;;;;;;6271986;23;20364;-92
2021/05/14 12:26:41;;;;;;;0.60;0.53;;;20.80;22.20;;;;;;6271307;23;20368;-92
2021/05/14 12:32:36;;;;;;;1.80;0.70;;;21.10;20.60;;;;;;6274758;23;20375;-94
2021/05/14 12:41:38;;;;;;;0.80;0.50;;;22.20;19.60;;;;;;6179902;23;20378;-91
2021/05/14 12:44:38;;;;;;;1.37;0.87;;;22.30;20.60;;;;;;6179840;23;20394;-94
2021/05/14 12:53:57;;;;;;;1.37;0.60;;;22.10;19.60;;;;;;6165236;23;20390;-93
2021/05/14 12:59:49;;;;;;;1.33;0.70;;;22.60;20.50;;;;;;6142676;23;20509;-95
2021/05/14 13:02:19;;;;;;;1.70;0.80;;;22.10;20.40;;;;;;6118130;23;20362;-94
2021/05/14 13:08:09;;;;;;;0.87;0.73;;;21.30;22.00;;;;;;6140344;23;20423;-94
2021/05/14 13:10:44;;;;;;;3.10;1.07;;;21.40;21.90;;;;;;6105483;23;20814;-87
2021/05/14 13:13:10;;;;;;;2.57;1.27;;;21.90;22.00;;;;;;6104137;23;20419;-88
2021/05/14 13:16:03;;;;;;;1.97;0.97;;;21.30;21.10;;;;;;6124471;23;20418;-89
2021/05/14 13:21:51;;;;;;;1.43;0.60;;;21.30;21.70;;;;;;6235273;23;20316;-93
2021/05/14 13:24:35;;;;;;;0.70;0.50;;;20.90;21.80;;;;;;6209279;23;20435;-92
2021/05/14 13:27:02;;;;;;;1.33;0.50;;;21.60;22.00;;;;;;6210883;23;20161;-92
2021/05/14 13:29:27;;;;;;;0.80;0.50;;;21.50;20.20;;;;;;6210914;23;20413;-92
2021/05/14 13:35:16;;;;;;;0.90;0.60;;;22.70;19.60;;;;;;6239096;23;20320;-92
2021/05/14 13:41:27;;;;;;;2.40;0.60;;;23.30;19.00;;;;;;6237577;23;20376;-94
2021/05/14 14:11:56;;;;;;;1.37;0.80;;;19.70;26.00;;;;;;6222955;22;20446;-92
2021/05/14 14:14:22;;;;;;;2.47;0.90;;;19.40;27.30;;;;;;6222911;23;20337;-91
2021/05/14 14:16:55;;;;;;;2.03;0.80;;;19.20;27.50;;;;;;6197093;23;20439;-91